Time;durP1;ratioP1;P1;durP2;ratioP2;P2;SDS_P1;SDS_P2;PMS_P1;PMS_P2;Temp;Humidity;BMP_temperature;BMP_pressure;BME280_temperature;BME280_humidity;BME280_pressure;Samples;Min_cycle;Max_cycle;Signal;HPM_P1;HPM_P2
2022/10/02 00:02:21;;;;;;;12.68;3.35;;;10.70;99.90;;;;;;5053292;28;20041;-83
2022/10/02 00:05:15;;;;;;;11.57;2.92;;;10.60;99.90;;;;;;5054645;28;20163;-83
2022/10/02 00:08:06;;;;;;;14.10;3.50;;;10.60;99.90;;;;;;5026316;28;20084;-82
2022/10/02 00:10:40;;;;;;;12.77;3.83;;;10.60;99.90;;;;;;5054059;28;20045;-82
2022/10/02 00:13:11;;;;;;;17.23;3.40;;;10.60;99.90;;;;;;5053664;28;20045;-82
2022/10/02 00:15:40;;;;;;;15.05;4.25;;;10.60;99.90;;;;;;5053288;28;20048;-83
2022/10/02 00:18:13;;;;;;;12.07;3.13;;;10.60;99.90;;;;;;5053018;28;20431;-82
2022/10/02 00:20:42;;;;;;;11.00;3.30;;;10.60;99.90;;;;;;5054197;28;20040;-82
2022/10/02 00:23:20;;;;;;;11.55;3.13;;;10.60;99.90;;;;;;5053811;28;20037;-82
2022/10/02 00:26:00;;;;;;;9.80;2.80;;;10.60;99.90;;;;;;5053571;28;20504;-83
2022/10/02 00:28:28;;;;;;;12.05;3.58;;;10.70;99.90;;;;;;5054116;28;20037;-83
2022/10/02 00:31:21;;;;;;;11.30;3.53;;;10.70;99.90;;;;;;5053750;28;20044;-83
2022/10/02 00:34:06;;;;;;;14.20;3.38;;;10.70;99.90;;;;;;5052628;28;20511;-83
2022/10/02 00:36:43;;;;;;;9.25;2.72;;;10.70;99.90;;;;;;5052788;28;20388;-82
2022/10/02 00:39:27;;;;;;;11.77;3.28;;;10.70;99.90;;;;;;5052509;28;20045;-82
2022/10/02 00:42:14;;;;;;;14.75;2.90;;;10.70;99.90;;;;;;5052242;28;20059;-82
2022/10/02 00:44:55;;;;;;;15.00;3.73;;;10.70;99.90;;;;;;5053659;28;20129;-82
2022/10/02 00:47:26;;;;;;;12.18;3.15;;;10.70;99.90;;;;;;5052578;28;20770;-82
2022/10/02 00:50:08;;;;;;;13.75;4.07;;;10.60;99.90;;;;;;5053215;28;20049;-82
2022/10/02 00:52:45;;;;;;;14.07;3.22;;;10.60;99.90;;;;;;5053573;28;20045;-82
2022/10/02 00:55:36;;;;;;;16.75;3.58;;;10.60;99.90;;;;;;5053242;28;20053;-82
2022/10/02 00:58:35;;;;;;;12.80;3.47;;;10.60;99.90;;;;;;5052607;28;20049;-82
2022/10/02 01:01:32;;;;;;;16.08;3.60;;;10.60;99.90;;;;;;5052279;28;20114;-82
2022/10/02 01:04:02;;;;;;;14.10;3.13;;;10.60;99.90;;;;;;5038819;28;20056;-82
2022/10/02 01:06:28;;;;;;;15.52;3.60;;;10.60;99.90;;;;;;5053418;28;20051;-83
2022/10/02 01:08:54;;;;;;;10.15;2.80;;;10.70;99.90;;;;;;5035708;28;20045;-82
2022/10/02 01:11:22;;;;;;;11.85;3.00;;;10.50;99.90;;;;;;5052333;28;20493;-82
2022/10/02 01:13:48;;;;;;;13.98;3.13;;;10.50;99.90;;;;;;5052373;28;20147;-82
2022/10/02 01:16:14;;;;;;;15.18;4.03;;;10.50;99.90;;;;;;5053396;28;20057;-82
2022/10/02 01:18:44;;;;;;;12.90;3.25;;;10.50;99.90;;;;;;5052535;28;20127;-82
2022/10/02 01:21:17;;;;;;;16.63;3.22;;;11.00;99.90;;;;;;5053222;28;20048;-83
2022/10/02 01:24:11;;;;;;;17.20;4.07;;;10.50;99.90;;;;;;5053735;28;20132;-82
2022/10/02 01:26:37;;;;;;;14.85;3.67;;;10.80;99.90;;;;;;5050584;28;20049;-82
2022/10/02 01:29:03;;;;;;;12.90;3.17;;;10.60;99.90;;;;;;5056307;28;20041;-83
2022/10/02 01:31:29;;;;;;;11.85;3.95;;;10.50;99.90;;;;;;5057067;28;20043;-82
2022/10/02 01:33:55;;;;;;;14.88;3.65;;;10.60;99.90;;;;;;5056008;28;20036;-83
2022/10/02 01:36:21;;;;;;;9.68;3.15;;;10.50;99.90;;;;;;5055977;28;20190;-83
2022/10/02 01:38:48;;;;;;;16.35;3.30;;;10.60;99.90;;;;;;5039084;28;20523;-83
2022/10/02 01:41:14;;;;;;;13.50;3.28;;;10.60;99.90;;;;;;5056615;28;20106;-82
2022/10/02 01:43:54;;;;;;;11.52;3.65;;;10.60;99.90;;;;;;5056854;28;20131;-83
2022/10/02 01:46:35;;;;;;;14.70;3.75;;;10.60;99.90;;;;;;5056823;28;20063;-83
2022/10/02 01:49:09;;;;;;;13.98;3.58;;;10.60;99.90;;;;;;5038983;28;20198;-82
2022/10/02 01:51:57;;;;;;;15.35;3.88;;;10.60;99.90;;;;;;5057207;28;20045;-83
2022/10/02 01:54:41;;;;;;;15.40;3.43;;;10.60;99.90;;;;;;5039079;28;20055;-82
2022/10/02 01:57:39;;;;;;;13.23;3.28;;;10.70;99.90;;;;;;5055655;28;20045;-82
2022/10/02 02:00:18;;;;;;;19.42;3.60;;;10.70;99.90;;;;;;5055387;28;20052;-82
2022/10/02 02:03:12;;;;;;;18.17;4.05;;;10.70;99.90;;;;;;5056410;28;20076;-83
2022/10/02 02:05:54;;;;;;;11.85;3.92;;;10.70;99.90;;;;;;5055368;28;20424;-82
2022/10/02 02:08:29;;;;;;;17.65;3.70;;;10.70;99.90;;;;;;5055862;28;20072;-82
2022/10/02 02:11:21;;;;;;;17.30;3.30;;;10.70;99.90;;;;;;5056592;28;20095;-82
2022/10/02 02:14:02;;;;;;;11.57;3.47;;;10.80;99.90;;;;;;5053981;28;20060;-83
2022/10/02 02:16:46;;;;;;;20.08;3.85;;;10.80;99.90;;;;;;5054805;28;20044;-83
2022/10/02 02:19:29;;;;;;;16.65;4.22;;;10.80;99.90;;;;;;5056196;28;20538;-82
2022/10/02 02:22:04;;;;;;;13.82;3.25;;;10.80;99.90;;;;;;5056090;28;20056;-82
2022/10/02 02:24:34;;;;;;;19.33;4.30;;;10.90;99.90;;;;;;5056041;28;20045;-82
2022/10/02 02:27:01;;;;;;;19.13;3.35;;;10.70;99.90;;;;;;5056008;28;20047;-82
2022/10/02 02:29:31;;;;;;;16.10;3.65;;;10.80;99.90;;;;;;5056339;28;20412;-82
2022/10/02 02:31:59;;;;;;;19.95;3.55;;;10.70;99.90;;;;;;5054943;28;20197;-83
2022/10/02 02:34:34;;;;;;;13.18;3.72;;;10.80;99.90;;;;;;5055398;28;20481;-82
2022/10/02 02:37:12;;;;;;;19.23;3.83;;;10.70;99.90;;;;;;5055809;28;20060;-83
2022/10/02 02:39:55;;;;;;;14.48;3.17;;;10.70;99.90;;;;;;5055075;28;20041;-83
2022/10/02 02:42:24;;;;;;;15.02;3.35;;;10.70;99.90;;;;;;5055207;28;20052;-83
2022/10/02 02:44:59;;;;;;;13.95;3.95;;;10.70;99.90;;;;;;5055656;28;20052;-82
2022/10/02 02:47:43;;;;;;;19.30;3.65;;;10.70;99.90;;;;;;5055667;28;20045;-82
2022/10/02 02:50:19;;;;;;;15.10;3.15;;;10.60;99.90;;;;;;5055269;28;20529;-82
2022/10/02 02:53:02;;;;;;;16.00;3.95;;;10.60;99.90;;;;;;5055519;28;20060;-82
2022/10/02 02:55:32;;;;;;;9.63;3.05;;;10.90;99.90;;;;;;5054503;28;20385;-83
2022/10/02 02:58:08;;;;;;;13.60;3.70;;;10.50;99.90;;;;;;5055446;28;20051;-83
2022/10/02 03:00:34;;;;;;;16.58;3.35;;;10.60;99.90;;;;;;5055860;28;20045;-83
2022/10/02 03:03:00;;;;;;;13.35;4.10;;;11.00;99.90;;;;;;5054142;28;20052;-83
2022/10/02 03:05:27;;;;;;;15.88;3.25;;;10.60;99.90;;;;;;5054335;28;20037;-83
2022/10/02 03:08:02;;;;;;;16.30;3.47;;;10.60;99.90;;;;;;5055458;28;20425;-82
2022/10/02 03:10:44;;;;;;;12.80;3.33;;;10.60;99.90;;;;;;5054195;28;20076;-82
2022/10/02 03:13:30;;;;;;;17.38;3.10;;;10.60;99.90;;;;;;5055203;28;20041;-82
2022/10/02 03:16:05;;;;;;;12.57;2.75;;;10.60;99.90;;;;;;5055384;28;20041;-82
2022/10/02 03:18:38;;;;;;;12.88;2.70;;;10.60;99.90;;;;;;5053914;28;20049;-82
2022/10/02 03:21:14;;;;;;;11.38;3.10;;;10.60;99.90;;;;;;5054877;28;20128;-82
2022/10/02 03:23:54;;;;;;;11.43;2.88;;;10.60;99.90;;;;;;5054634;28;20044;-82
2022/10/02 03:26:35;;;;;;;16.25;3.25;;;10.50;99.90;;;;;;5054094;28;20056;-82
2022/10/02 03:29:04;;;;;;;11.30;2.78;;;10.60;99.90;;;;;;5054830;28;20045;-82
2022/10/02 03:31:32;;;;;;;16.02;3.92;;;10.50;99.90;;;;;;5054627;28;20045;-82
2022/10/02 03:34:00;;;;;;;7.25;2.67;;;10.60;99.90;;;;;;5053526;28;20033;-82
2022/10/02 03:36:26;;;;;;;13.45;2.70;;;11.00;99.90;;;;;;5054719;28;20501;-82
2022/10/02 03:38:58;;;;;;;8.95;2.90;;;10.50;99.90;;;;;;5053485;28;20515;-82
2022/10/02 03:41:23;;;;;;;10.23;2.85;;;10.50;99.90;;;;;;5054706;28;20053;-82
2022/10/02 03:43:49;;;;;;;10.90;3.13;;;10.50;99.90;;;;;;5054360;28;20099;-82
2022/10/02 03:46:14;;;;;;;11.85;3.03;;;11.10;99.90;;;;;;5053972;28;20048;-82
2022/10/02 03:48:40;;;;;;;6.45;2.40;;;10.50;99.90;;;;;;5054330;28;20550;-82
2022/10/02 03:51:06;;;;;;;12.07;2.72;;;10.40;99.90;;;;;;5054422;28;20048;-82
2022/10/02 03:53:35;;;;;;;13.65;2.75;;;10.40;99.90;;;;;;5053298;28;20052;-82
2022/10/02 03:56:04;;;;;;;12.05;2.88;;;10.30;99.90;;;;;;5054319;28;20086;-82
2022/10/02 03:58:32;;;;;;;10.07;2.63;;;10.40;99.90;;;;;;5054040;28;20555;-82
2022/10/02 04:01:17;;;;;;;8.90;2.22;;;10.40;99.90;;;;;;5053049;28;20059;-82
2022/10/02 04:03:46;;;;;;;10.45;2.58;;;10.40;99.90;;;;;;5053465;28;20055;-82
2022/10/02 04:06:17;;;;;;;9.70;2.58;;;10.30;99.90;;;;;;5054147;28;20045;-82
2022/10/02 04:08:55;;;;;;;11.82;2.65;;;10.30;99.90;;;;;;5053263;28;20148;-82
2022/10/02 04:11:37;;;;;;;8.20;2.55;;;10.30;99.90;;;;;;5054083;28;20053;-82
2022/10/02 04:14:35;;;;;;;9.52;2.72;;;10.30;99.90;;;;;;5054391;28;20128;-82
2022/10/02 04:17:07;;;;;;;14.13;2.53;;;10.30;99.90;;;;;;5032750;28;20057;-82
2022/10/02 04:19:38;;;;;;;8.40;2.78;;;10.30;99.90;;;;;;5053639;28;20505;-82
2022/10/02 04:22:38;;;;;;;5.97;2.03;;;10.30;99.90;;;;;;5053842;28;20056;-82
2022/10/02 04:25:08;;;;;;;11.27;2.25;;;10.30;99.90;;;;;;5053872;28;20548;-82
2022/10/02 04:27:37;;;;;;;10.93;3.13;;;10.30;99.90;;;;;;5053777;28;20041;-82
2022/10/02 04:30:11;;;;;;;12.02;2.30;;;10.20;99.90;;;;;;5052560;28;20044;-82
2022/10/02 04:32:37;;;;;;;12.27;2.88;;;10.20;99.90;;;;;;5054182;28;20080;-82
2022/10/02 04:35:12;;;;;;;9.43;2.20;;;10.20;99.90;;;;;;5053792;28;20087;-82
2022/10/02 04:37:50;;;;;;;9.18;2.55;;;10.20;99.90;;;;;;5053653;28;20048;-82
2022/10/02 04:40:24;;;;;;;4.30;2.08;;;10.20;99.90;;;;;;5052771;28;20531;-82
2022/10/02 04:43:09;;;;;;;10.88;2.20;;;10.20;99.90;;;;;;5054508;28;20540;-82
2022/10/02 04:46:07;;;;;;;14.93;2.78;;;10.10;99.90;;;;;;5053611;28;20049;-82
2022/10/02 04:49:05;;;;;;;12.95;2.45;;;10.10;99.90;;;;;;5053397;28;20051;-83
2022/10/02 04:51:54;;;;;;;15.50;2.65;;;10.10;99.90;;;;;;5024424;28;20049;-82
2022/10/02 04:54:38;;;;;;;13.05;3.00;;;10.10;99.90;;;;;;5053765;28;20053;-82
2022/10/02 04:57:33;;;;;;;14.90;2.70;;;10.10;99.90;;;;;;5053709;28;20053;-82
2022/10/02 05:00:24;;;;;;;10.05;3.17;;;10.10;99.90;;;;;;5058065;28;20045;-82
2022/10/02 05:03:04;;;;;;;15.90;3.78;;;10.20;99.90;;;;;;5052531;28;20127;-82
2022/10/02 05:05:58;;;;;;;13.00;3.17;;;10.70;99.90;;;;;;5057428;28;20060;-82
2022/10/02 05:09:05;;;;;;;14.27;3.28;;;10.20;99.90;;;;;;5057895;28;20485;-82
2022/10/02 05:11:40;;;;;;;17.48;3.60;;;10.20;99.90;;;;;;5019804;28;20056;-82
2022/10/02 05:14:33;;;;;;;14.10;4.05;;;10.20;99.90;;;;;;5057361;28;20055;-82
2022/10/02 05:17:26;;;;;;;16.52;3.90;;;10.10;99.90;;;;;;5056481;28;20059;-82
2022/10/02 05:20:04;;;;;;;13.00;3.80;;;10.20;99.90;;;;;;5039958;28;20044;-82
2022/10/02 05:22:54;;;;;;;12.63;2.97;;;10.10;99.90;;;;;;5057080;28;20045;-82
2022/10/02 05:25:49;;;;;;;16.00;3.92;;;10.20;99.90;;;;;;5057412;28;20131;-82
2022/10/02 05:28:34;;;;;;;19.08;3.97;;;10.20;99.90;;;;;;5057013;28;20048;-82
2022/10/02 05:31:35;;;;;;;14.57;3.63;;;10.20;99.90;;;;;;5057010;28;20469;-82
2022/10/02 05:34:15;;;;;;;15.73;3.55;;;10.20;99.90;;;;;;5019905;28;20465;-82
2022/10/02 05:37:12;;;;;;;13.75;3.63;;;10.20;99.90;;;;;;5056895;28;20132;-82
2022/10/02 05:39:51;;;;;;;15.95;4.90;;;10.20;99.90;;;;;;5056982;28;20040;-82
2022/10/02 05:42:16;;;;;;;15.02;3.85;;;10.20;99.90;;;;;;5055785;28;20053;-82
2022/10/02 05:44:49;;;;;;;11.27;3.70;;;10.20;99.90;;;;;;5056852;28;20063;-81
2022/10/02 05:47:21;;;;;;;14.00;3.70;;;10.70;99.90;;;;;;5056614;28;20094;-81
2022/10/02 05:49:58;;;;;;;22.02;4.45;;;10.30;99.90;;;;;;5057458;28;20044;-82
2022/10/02 05:52:36;;;;;;;20.27;4.18;;;10.30;99.90;;;;;;5057087;28;20132;-81
2022/10/02 05:55:27;;;;;;;14.32;3.70;;;10.70;99.90;;;;;;5055412;28;20080;-81
2022/10/02 05:58:18;;;;;;;18.27;4.45;;;10.30;99.90;;;;;;5039041;28;20049;-82
2022/10/02 06:01:05;;;;;;;14.40;3.85;;;10.30;99.90;;;;;;5056563;28;20056;-81
2022/10/02 06:03:49;;;;;;;21.80;3.72;;;10.30;99.90;;;;;;5056475;28;20123;-82
2022/10/02 06:06:21;;;;;;;8.80;3.75;;;10.30;99.90;;;;;;5056338;28;20493;-81
2022/10/02 06:09:00;;;;;;;18.13;4.18;;;10.30;99.90;;;;;;5039436;28;20068;-85
2022/10/02 06:11:46;;;;;;;10.40;3.70;;;10.30;99.90;;;;;;5055729;28;20044;-84
2022/10/02 06:14:33;;;;;;;16.10;3.42;;;10.30;99.90;;;;;;5056383;28;20045;-80
2022/10/02 06:17:04;;;;;;;15.75;3.72;;;10.30;99.90;;;;;;5056750;28;20045;-84
2022/10/02 06:19:52;;;;;;;11.13;3.70;;;10.30;99.90;;;;;;5038772;28;20144;-82
2022/10/02 06:22:26;;;;;;;16.30;3.78;;;10.30;99.90;;;;;;5055971;28;20095;-83
2022/10/02 06:25:20;;;;;;;16.08;4.13;;;10.40;99.90;;;;;;5055034;28;20431;-81
2022/10/02 06:28:14;;;;;;;13.68;4.15;;;10.40;99.90;;;;;;5056444;28;20057;-79
2022/10/02 06:30:46;;;;;;;14.02;3.85;;;10.50;99.90;;;;;;5056177;28;20041;-80
2022/10/02 06:33:23;;;;;;;15.82;3.40;;;10.50;99.90;;;;;;5054993;28;20135;-84
2022/10/02 06:36:07;;;;;;;11.68;5.10;;;10.50;99.90;;;;;;5056637;28;20041;-83
2022/10/02 06:38:54;;;;;;;16.23;4.50;;;10.50;99.90;;;;;;5056022;28;20158;-82
2022/10/02 06:41:34;;;;;;;13.45;4.22;;;10.50;99.90;;;;;;5054551;28;20053;-82
2022/10/02 06:44:37;;;;;;;13.68;3.72;;;10.90;99.90;;;;;;5055722;28;20101;-82
2022/10/02 06:47:21;;;;;;;12.48;3.75;;;10.60;99.90;;;;;;5054664;28;20044;-83
2022/10/02 06:50:14;;;;;;;10.27;3.42;;;10.70;99.90;;;;;;5054612;28;20056;-83
2022/10/02 06:52:59;;;;;;;17.50;3.72;;;10.70;99.90;;;;;;5055519;28;20049;-83
2022/10/02 06:55:27;;;;;;;18.25;3.35;;;10.80;99.90;;;;;;5055780;28;20477;-82
2022/10/02 06:57:52;;;;;;;16.05;3.35;;;10.90;99.90;;;;;;5054728;28;20048;-83
2022/10/02 07:00:20;;;;;;;11.63;3.60;;;10.90;99.90;;;;;;5037880;28;20052;-82
2022/10/02 07:03:32;;;;;;;11.05;3.25;;;11.00;99.90;;;;;;5054075;28;20080;-82
2022/10/02 07:06:35;;;;;;;20.48;3.58;;;11.10;99.90;;;;;;5026317;28;20057;-82
2022/10/02 07:09:31;;;;;;;14.98;3.53;;;11.20;99.90;;;;;;5055167;28;20076;-82
2022/10/02 07:12:24;;;;;;;21.40;3.70;;;11.30;99.90;;;;;;5055480;28;20045;-82
2022/10/02 07:15:43;;;;;;;11.48;3.85;;;11.50;99.90;;;;;;5055162;28;20045;-82
2022/10/02 07:18:34;;;;;;;15.93;4.15;;;11.60;99.90;;;;;;5013075;28;20132;-81
2022/10/02 07:21:19;;;;;;;14.13;3.25;;;11.80;99.90;;;;;;5061633;28;20049;-79
2022/10/02 07:24:09;;;;;;;14.13;4.22;;;11.70;99.90;;;;;;5072142;28;20551;-77
2022/10/02 07:26:46;;;;;;;18.65;3.72;;;12.00;99.90;;;;;;5074507;28;20044;-76
2022/10/02 07:29:18;;;;;;;;;;;12.10;99.90;;;;;;5075044;28;20045;-78
2022/10/02 07:32:03;;;;;;;13.82;3.22;;;12.20;99.90;;;;;;5074477;28;19920;-76
2022/10/02 07:34:34;;;;;;;12.60;3.00;;;12.40;99.90;;;;;;5074389;28;20051;-80
2022/10/02 07:37:11;;;;;;;15.63;3.53;;;12.50;99.90;;;;;;5074186;28;20048;-80
2022/10/02 07:39:44;;;;;;;15.00;3.33;;;12.60;99.90;;;;;;5074059;28;20396;-83
2022/10/02 07:42:13;;;;;;;12.70;3.88;;;12.70;99.90;;;;;;5074608;28;20052;-80
2022/10/02 07:45:06;;;;;;;15.20;4.13;;;12.80;99.90;;;;;;5073733;28;20135;-81
2022/10/02 07:47:40;;;;;;;13.63;3.28;;;12.90;99.90;;;;;;5074306;28;20045;-76
2022/10/02 07:50:43;;;;;;;13.32;3.28;;;13.00;99.90;;;;;;5074423;28;20448;-80
2022/10/02 07:53:39;;;;;;;14.07;2.85;;;13.20;99.90;;;;;;5073490;28;20052;-82
2022/10/02 07:56:08;;;;;;;12.05;3.00;;;13.40;99.90;;;;;;5073314;28;20059;-82
2022/10/02 07:58:42;;;;;;;13.38;3.15;;;13.60;99.90;;;;;;5073511;28;20164;-83
2022/10/02 08:01:17;;;;;;;14.75;3.42;;;13.70;99.90;;;;;;5073928;28;20049;-83
2022/10/02 08:03:50;;;;;;;9.57;2.75;;;13.90;99.90;;;;;;5073993;28;20036;-82
2022/10/02 08:06:17;;;;;;;12.35;2.85;;;14.00;99.90;;;;;;5074049;28;20041;-85
2022/10/02 08:09:01;;;;;;;12.30;3.20;;;14.10;99.90;;;;;;5055993;28;20056;-83
2022/10/02 08:11:37;;;;;;;9.32;2.90;;;14.20;99.90;;;;;;5056391;28;20047;-80
2022/10/02 08:14:21;;;;;;;10.73;2.55;;;14.20;99.90;;;;;;5072996;28;20048;-83
2022/10/02 08:16:51;;;;;;;13.02;3.00;;;14.10;99.90;;;;;;5056025;28;20045;-83
2022/10/02 08:19:24;;;;;;;13.05;3.35;;;14.00;99.90;;;;;;5073674;28;20048;-81
2022/10/02 08:22:13;;;;;;;18.15;3.28;;;14.10;99.90;;;;;;5073672;28;20051;-84
2022/10/02 08:24:45;;;;;;;15.30;3.30;;;14.10;99.90;;;;;;5072662;28;20555;-87
2022/10/02 08:27:33;;;;;;;10.85;2.85;;;14.10;99.90;;;;;;5056234;28;20052;-83
2022/10/02 08:30:05;;;;;;;11.57;2.75;;;14.20;99.90;;;;;;5057744;28;20048;-79
2022/10/02 08:32:32;;;;;;;12.73;3.13;;;14.20;99.90;;;;;;5071846;28;20051;-83
2022/10/02 08:34:59;;;;;;;11.35;3.05;;;14.50;99.90;;;;;;5074083;28;20169;-82
2022/10/02 08:37:48;;;;;;;11.48;2.90;;;14.50;99.90;;;;;;5072236;28;20055;-84
2022/10/02 08:40:28;;;;;;;13.40;4.03;;;15.10;99.90;;;;;;5072330;28;20047;-81
2022/10/02 08:43:37;;;;;;;15.88;3.08;;;14.70;99.90;;;;;;5073667;28;20074;-82
2022/10/02 08:46:39;;;;;;;12.82;2.70;;;14.80;99.90;;;;;;5070460;28;20071;-82
2022/10/02 08:49:28;;;;;;;12.98;2.92;;;14.80;99.90;;;;;;5072358;28;20396;-81
2022/10/02 08:52:23;;;;;;;11.70;2.83;;;14.90;99.90;;;;;;5072487;28;20051;-82
2022/10/02 08:55:02;;;;;;;11.95;2.83;;;14.80;99.90;;;;;;5055781;28;20139;-83
2022/10/02 08:57:52;;;;;;;14.50;3.38;;;14.90;99.90;;;;;;5071896;28;20047;-88
2022/10/02 09:00:25;;;;;;;11.95;2.75;;;15.00;99.90;;;;;;5072172;28;20045;-81
2022/10/02 09:03:16;;;;;;;15.02;3.03;;;15.00;99.90;;;;;;5073020;28;20048;-82
2022/10/02 09:06:09;;;;;;;11.65;3.03;;;15.10;99.90;;;;;;5072994;28;20047;-83
2022/10/02 09:08:56;;;;;;;14.63;3.47;;;15.10;99.90;;;;;;5071961;28;20037;-86
2022/10/02 09:11:51;;;;;;;9.68;2.45;;;15.20;99.90;;;;;;5072242;28;20049;-79
2022/10/02 09:14:26;;;;;;;10.52;2.63;;;15.20;99.90;;;;;;5072996;28;20068;-79
2022/10/02 09:17:15;;;;;;;11.95;2.67;;;15.30;99.90;;;;;;5072718;28;20395;-78
2022/10/02 09:19:54;;;;;;;8.30;2.50;;;15.50;99.90;;;;;;5073024;28;20481;-78
2022/10/02 09:22:43;;;;;;;8.93;2.40;;;15.60;99.90;;;;;;5073663;28;20420;-78
2022/10/02 09:25:43;;;;;;;9.15;2.45;;;15.70;99.90;;;;;;5073817;28;20044;-80
2022/10/02 09:28:43;;;;;;;11.75;2.70;;;15.70;99.90;;;;;;5073645;28;20040;-80
2022/10/02 09:31:13;;;;;;;10.00;2.50;;;15.70;99.90;;;;;;5073340;28;20044;-77
2022/10/02 09:34:10;;;;;;;10.82;2.63;;;15.60;99.90;;;;;;5073208;28;20088;-83
2022/10/02 09:37:16;;;;;;;11.43;2.63;;;15.60;99.90;;;;;;5073055;28;20522;-78
2022/10/02 09:39:53;;;;;;;10.57;2.40;;;15.60;99.90;;;;;;5030993;28;20049;-80
2022/10/02 09:42:43;;;;;;;7.45;2.33;;;15.50;99.90;;;;;;5014304;28;20557;-81
2022/10/02 09:45:38;;;;;;;9.52;2.25;;;15.60;99.90;;;;;;5061629;28;20060;-77
2022/10/02 09:48:32;;;;;;;10.50;2.97;;;15.60;99.90;;;;;;5076869;28;20369;-81
2022/10/02 09:51:15;;;;;;;10.07;2.33;;;15.80;99.90;;;;;;5076977;28;20107;-80
2022/10/02 09:53:52;;;;;;;10.40;3.30;;;16.10;99.90;;;;;;5076911;28;20036;-81
2022/10/02 09:56:26;;;;;;;8.73;2.10;;;16.30;99.90;;;;;;5076612;28;20041;-78
2022/10/02 09:59:04;;;;;;;16.00;3.03;;;16.40;99.90;;;;;;5075627;28;20162;-77
2022/10/02 10:01:59;;;;;;;8.82;2.20;;;16.40;99.90;;;;;;5076777;28;20053;-82
2022/10/02 10:04:45;;;;;;;8.15;2.70;;;16.50;99.90;;;;;;5053706;28;20139;-79
2022/10/02 10:08:01;;;;;;;9.65;2.47;;;16.40;99.90;;;;;;5076189;28;20556;-81
2022/10/02 10:10:59;;;;;;;9.85;2.30;;;16.40;99.90;;;;;;5076406;28;20048;-79
2022/10/02 10:13:42;;;;;;;8.38;2.63;;;16.30;99.90;;;;;;5076389;28;20048;-82
2022/10/02 10:16:56;;;;;;;7.85;2.17;;;16.40;99.90;;;;;;5076620;28;20052;-78
2022/10/02 10:19:57;;;;;;;11.70;2.50;;;16.70;99.90;;;;;;5039097;28;20057;-83
2022/10/02 10:22:44;;;;;;;7.95;2.13;;;16.80;99.90;;;;;;5076021;28;20048;-80
2022/10/02 10:25:43;;;;;;;10.75;2.50;;;16.70;99.90;;;;;;5058166;28;20521;-78
2022/10/02 10:28:42;;;;;;;12.00;2.25;;;16.80;99.90;;;;;;5076090;28;20044;-79
2022/10/02 10:31:30;;;;;;;9.18;2.60;;;16.70;99.90;;;;;;5075706;28;20488;-80
2022/10/02 10:34:07;;;;;;;8.10;2.08;;;16.70;99.90;;;;;;5074430;28;20045;-79
2022/10/02 10:39:49;;;;;;;9.63;2.38;;;16.50;99.90;;;;;;5076135;28;19938;-79
2022/10/02 10:42:39;;;;;;;11.00;2.47;;;16.50;99.90;;;;;;5075214;28;20102;-80
2022/10/02 10:45:33;;;;;;;12.35;2.70;;;16.60;99.90;;;;;;5075680;28;20102;-84
2022/10/02 10:48:18;;;;;;;10.65;2.63;;;16.80;99.90;;;;;;5075754;28;20091;-79
2022/10/02 10:51:18;;;;;;;11.10;2.92;;;17.00;99.90;;;;;;5075019;28;20059;-79
2022/10/02 10:54:24;;;;;;;10.63;2.67;;;17.10;99.90;;;;;;5075038;28;20049;-79
2022/10/02 10:57:12;;;;;;;10.82;2.83;;;16.90;99.90;;;;;;5080219;28;20064;-77
2022/10/02 11:00:06;;;;;;;14.77;3.20;;;16.70;99.90;;;;;;5075507;28;20045;-79
2022/10/02 11:02:42;;;;;;;11.25;2.70;;;16.50;99.90;;;;;;5074498;28;20051;-78
2022/10/02 11:05:44;;;;;;;13.38;3.00;;;16.40;99.90;;;;;;5078807;28;20120;-78
2022/10/02 11:08:44;;;;;;;8.90;2.72;;;16.40;99.90;;;;;;5075316;28;20530;-78
2022/10/02 11:11:47;;;;;;;10.38;3.08;;;16.40;99.90;;;;;;5079326;28;20052;-82
2022/10/02 11:14:34;;;;;;;9.57;2.95;;;16.50;99.90;;;;;;5074969;28;20396;-79
2022/10/02 11:17:21;;;;;;;11.15;2.28;;;16.50;99.90;;;;;;5075038;28;20143;-78
2022/10/02 11:20:05;;;;;;;13.82;2.70;;;16.30;99.90;;;;;;5075030;28;20443;-79
2022/10/02 11:22:53;;;;;;;11.73;2.60;;;16.20;99.90;;;;;;5073621;28;20044;-78
2022/10/02 11:25:27;;;;;;;9.10;2.63;;;16.20;99.90;;;;;;5075176;28;20094;-79
2022/10/02 11:28:25;;;;;;;11.63;2.58;;;16.30;99.90;;;;;;5074875;28;20488;-78
2022/10/02 11:31:02;;;;;;;11.53;2.70;;;16.40;99.90;;;;;;5073739;28;20045;-78
2022/10/02 11:33:28;;;;;;;;;;;16.70;99.90;;;;;;5075203;28;20045;-78
2022/10/02 11:36:28;;;;;;;8.88;2.25;;;16.90;99.90;;;;;;5074672;28;19920;-78
2022/10/02 11:39:13;;;;;;;8.05;2.75;;;17.10;99.90;;;;;;5074667;28;20040;-78
2022/10/02 11:41:52;;;;;;;10.55;2.55;;;17.30;99.90;;;;;;5074414;28;20048;-78
2022/10/02 11:44:36;;;;;;;15.30;3.00;;;17.50;99.90;;;;;;5074718;28;20067;-78
2022/10/02 11:47:27;;;;;;;8.40;2.42;;;17.50;99.90;;;;;;5074122;28;20044;-78
2022/10/02 11:50:20;;;;;;;10.57;2.63;;;17.50;99.90;;;;;;5074513;28;20059;-79
2022/10/02 11:53:12;;;;;;;10.68;2.22;;;17.40;99.90;;;;;;5074201;28;20110;-78
2022/10/02 11:56:10;;;;;;;8.52;1.92;;;17.20;99.90;;;;;;5074575;28;20041;-77
2022/10/02 11:58:54;;;;;;;12.23;2.97;;;17.10;99.90;;;;;;5074175;28;20388;-78
2022/10/02 12:01:44;;;;;;;7.30;2.03;;;16.90;99.90;;;;;;5074306;28;20132;-78
2022/10/02 12:04:47;;;;;;;8.45;2.33;;;16.80;99.90;;;;;;5074282;28;20053;-78
2022/10/02 12:07:16;;;;;;;7.75;1.98;;;16.70;99.90;;;;;;5073802;28;20072;-79
2022/10/02 12:09:59;;;;;;;7.25;1.80;;;16.60;99.90;;;;;;5073935;28;20048;-78
2022/10/02 12:13:01;;;;;;;9.02;2.08;;;16.50;99.90;;;;;;5074128;28;20036;-78
2022/10/02 12:15:45;;;;;;;11.52;2.30;;;16.40;99.90;;;;;;5067196;28;20056;-78
2022/10/02 12:18:48;;;;;;;7.78;1.90;;;16.30;99.90;;;;;;5074045;28;20487;-78
2022/10/02 12:27:11;;;;;;;10.73;2.47;;;16.30;99.90;;;;;;5072716;28;20420;-77
2022/10/02 12:30:14;;;;;;;8.68;2.38;;;16.60;99.90;;;;;;5073547;28;20056;-79
2022/10/02 12:33:07;;;;;;;9.48;2.20;;;16.60;99.90;;;;;;5073719;28;20051;-78
2022/10/02 12:36:06;;;;;;;11.05;2.78;;;16.80;99.90;;;;;;5073796;28;20044;-80
2022/10/02 12:38:58;;;;;;;9.88;2.40;;;16.90;99.90;;;;;;5073814;28;20119;-78
2022/10/02 12:41:34;;;;;;;10.38;2.60;;;17.00;99.90;;;;;;5073651;28;20139;-76
2022/10/02 12:44:23;;;;;;;8.93;2.30;;;17.20;99.90;;;;;;5074119;28;20044;-79
2022/10/02 12:47:28;;;;;;;8.02;2.28;;;17.20;99.90;;;;;;5073668;28;20131;-81
2022/10/02 12:50:20;;;;;;;8.88;2.45;;;17.40;99.90;;;;;;5073647;28;20048;-78
2022/10/02 12:53:18;;;;;;;8.27;2.05;;;17.60;99.90;;;;;;5073631;28;20040;-78
2022/10/02 12:56:13;;;;;;;13.75;2.30;;;17.80;99.90;;;;;;5050706;28;20123;-79
2022/10/02 12:59:04;;;;;;;8.48;2.03;;;17.90;99.90;;;;;;5036331;28;20152;-78
2022/10/02 13:01:48;;;;;;;10.65;2.53;;;17.90;99.90;;;;;;5072858;28;20044;-77
2022/10/02 13:04:40;;;;;;;9.65;2.40;;;17.90;99.90;;;;;;5073522;28;20044;-78
2022/10/02 13:07:34;;;;;;;7.72;2.10;;;17.80;99.90;;;;;;5073484;28;20080;-82
2022/10/02 13:10:39;;;;;;;11.35;2.40;;;17.60;99.90;;;;;;5073673;28;20048;-77
2022/10/02 13:13:17;;;;;;;8.13;2.08;;;17.30;99.90;;;;;;5056038;28;20041;-77
2022/10/02 13:16:10;;;;;;;11.30;2.30;;;17.20;99.90;;;;;;5073830;28;20437;-78
2022/10/02 13:18:49;;;;;;;8.02;1.90;;;17.20;99.90;;;;;;5073446;28;20472;-77
2022/10/02 13:21:24;;;;;;;7.85;2.20;;;17.20;99.90;;;;;;5077853;28;20081;-77
2022/10/02 13:23:49;;;;;;;11.05;2.83;;;17.20;99.90;;;;;;5077232;28;20094;-78
2022/10/02 13:26:30;;;;;;;7.70;1.90;;;17.30;99.90;;;;;;5077196;28;20052;-79
2022/10/02 13:29:36;;;;;;;9.65;1.98;;;17.30;99.90;;;;;;5077202;28;20045;-82
2022/10/02 13:32:37;;;;;;;9.13;2.08;;;17.30;99.90;;;;;;5077145;28;20510;-78
2022/10/02 13:35:33;;;;;;;7.80;2.35;;;17.30;99.90;;;;;;5077368;28;20036;-78
2022/10/02 13:38:25;;;;;;;7.65;1.92;;;17.40;99.90;;;;;;5076647;28;20492;-77
2022/10/02 13:41:22;;;;;;;7.60;2.10;;;17.50;99.90;;;;;;5074506;28;20064;-78
2022/10/02 13:44:11;;;;;;;8.38;2.10;;;17.50;99.90;;;;;;5076598;28;20049;-83
2022/10/02 13:46:54;;;;;;;9.07;2.10;;;17.40;99.90;;;;;;5076846;28;20106;-80
2022/10/02 13:49:43;;;;;;;8.18;2.40;;;17.20;99.90;;;;;;5076771;28;20586;-79
2022/10/02 13:52:36;;;;;;;9.25;2.17;;;17.00;99.90;;;;;;5076887;28;20051;-80
2022/10/02 13:55:24;;;;;;;10.10;2.20;;;16.80;99.90;;;;;;5076709;28;20086;-77
2022/10/02 13:58:02;;;;;;;10.13;4.05;;;16.60;99.90;;;;;;5076598;28;20055;-81
2022/10/02 14:00:37;;;;;;;8.23;2.22;;;16.50;99.90;;;;;;5076682;28;20052;-82
2022/10/02 14:03:33;;;;;;;8.57;2.20;;;16.40;99.90;;;;;;5075293;28;20154;-81
2022/10/02 14:06:19;;;;;;;6.60;2.08;;;16.30;99.90;;;;;;5076713;28;20434;-81
2022/10/02 14:08:57;;;;;;;6.57;1.73;;;16.30;99.90;;;;;;5075774;28;20077;-82
2022/10/02 14:11:35;;;;;;;10.05;2.13;;;16.30;99.90;;;;;;5075687;28;20114;-81